Terminal Aerodrome Forecast
Issued by NWS

Home | Current Version | Previous Version | Text Only | Print | Product List | Glossary On
Versions: 1 2 3 4 5 6 7 8 9 10 11 12 13 14 15 16 17 18 19 20 21 22 23 24 25 26
000
FTUS45 KGJT 260142 AAB
TAFASE
TAF AMD
KASE 260142Z 2602/2624 20004KT 6SM -SN BR SCT020 OVC040
      TEMPO 2602/2606 2SM -SN BR OVC018
     FM260600 26004KT 5SM -SN BR OVC025
     FM261000 25004KT P6SM BKN040
     FM261800 31004KT P6SM FEW150=

USA.gov is the U.S. government's official web portal to all federal, state and local government web resources and services.